createdAt,value
2019-02-25T00:01:33.991Z,1.00
2019-02-25T00:04:03.342Z,1.00
2019-02-25T00:06:33.788Z,1.00
2019-02-25T00:09:04.230Z,0.90
2019-02-25T00:11:35.119Z,0.90
2019-02-25T00:14:04.560Z,1.00
2019-02-25T00:16:33.854Z,1.10
2019-02-25T00:19:03.120Z,1.20
2019-02-25T00:21:32.403Z,1.50
2019-02-25T00:24:01.680Z,1.50
2019-02-25T00:26:31.191Z,1.60
2019-02-25T00:29:00.463Z,1.70
2019-02-25T00:31:29.751Z,1.70
2019-02-25T00:33:59.017Z,1.70
2019-02-25T00:36:28.296Z,1.70
2019-02-25T00:38:57.594Z,1.70
2019-02-25T00:41:26.861Z,1.60
2019-02-25T00:43:56.133Z,1.50
2019-02-25T00:46:25.411Z,1.40
2019-02-25T00:48:54.920Z,1.50
2019-02-25T00:51:24.238Z,1.60
2019-02-25T00:53:53.536Z,1.70
2019-02-25T00:56:22.808Z,1.70
2019-02-25T00:58:52.075Z,1.70
2019-02-25T01:01:21.424Z,1.70
2019-02-25T01:03:50.704Z,1.70
2019-02-25T01:06:19.979Z,1.70
2019-02-25T01:08:49.275Z,1.70
2019-02-25T01:11:18.775Z,1.70
2019-02-25T01:13:48.053Z,1.60
2019-02-25T01:16:17.332Z,1.50
2019-02-25T01:18:46.845Z,1.40
2019-02-25T01:21:16.363Z,1.50
2019-02-25T01:23:45.643Z,1.50
2019-02-25T01:26:14.984Z,1.40
2019-02-25T01:28:44.275Z,1.30
2019-02-25T01:31:13.550Z,1.40
2019-02-25T01:33:42.824Z,1.40
2019-02-25T01:36:12.104Z,1.40
2019-02-25T01:38:41.387Z,1.40
2019-02-25T01:41:10.668Z,1.30
2019-02-25T01:43:39.940Z,1.30
2019-02-25T01:46:09.471Z,1.40
2019-02-25T01:48:38.739Z,1.30
2019-02-25T01:51:08.008Z,1.20
2019-02-25T01:53:37.288Z,1.20
2019-02-25T01:56:06.564Z,1.10
2019-02-25T01:58:35.842Z,1.20
2019-02-25T02:01:05.192Z,1.70
2019-02-25T02:03:34.700Z,1.50
2019-02-25T02:06:03.975Z,1.40
2019-02-25T02:08:34.329Z,1.30
2019-02-25T02:11:03.607Z,1.20
2019-02-25T02:13:32.875Z,1.10
2019-02-25T02:16:02.377Z,1.10
2019-02-25T02:18:31.664Z,1.00
2019-02-25T02:21:01.168Z,1.10
2019-02-25T02:23:30.683Z,1.10
2019-02-25T02:25:59.959Z,1.10
2019-02-25T02:28:29.227Z,1.00
2019-02-25T02:30:58.497Z,1.10
2019-02-25T02:33:27.771Z,1.00
2019-02-25T02:35:57.046Z,1.00
2019-02-25T02:38:26.312Z,1.10
2019-02-25T02:40:56.664Z,1.20
2019-02-25T02:43:25.928Z,1.10
2019-02-25T02:46:07.172Z,1.10
2019-02-25T02:48:45.597Z,1.10
2019-02-25T02:51:15.113Z,1.20
2019-02-25T02:53:44.390Z,1.30
2019-02-25T02:56:13.658Z,1.20
2019-02-25T02:58:42.919Z,1.10
2019-02-25T03:01:12.200Z,1.10
2019-02-25T03:03:41.494Z,1.10
2019-02-25T03:06:10.761Z,1.10
2019-02-25T03:08:40.045Z,1.10
2019-02-25T03:11:09.317Z,1.10
2019-02-25T03:13:38.590Z,1.10
2019-02-25T03:16:07.858Z,1.10
2019-02-25T03:18:37.135Z,1.20
2019-02-25T03:21:07.380Z,1.20
2019-02-25T03:23:36.661Z,1.20
2019-02-25T03:26:05.932Z,1.20
2019-02-25T03:28:35.448Z,1.20
2019-02-25T03:31:04.718Z,1.30
2019-02-25T03:33:34.002Z,1.30
2019-02-25T03:36:03.280Z,1.30
2019-02-25T03:38:32.550Z,1.40
2019-02-25T03:41:02.004Z,1.40
2019-02-25T03:43:31.280Z,1.10
2019-02-25T03:46:00.557Z,0.80
2019-02-25T03:48:29.835Z,0.70
2019-02-25T03:50:59.115Z,0.50
2019-02-25T03:53:28.396Z,0.40
2019-02-25T03:55:57.760Z,0.30
2019-02-25T03:58:27.044Z,0.10
2019-02-25T04:00:56.327Z,0.20
2019-02-25T04:03:25.680Z,0.30
2019-02-25T04:05:54.956Z,0.20
2019-02-25T04:08:24.332Z,0.10
2019-02-25T04:10:53.913Z,0.10
2019-02-25T04:13:23.177Z,0.10
2019-02-25T04:15:52.444Z,0.00
2019-02-25T04:18:21.723Z,-0.10
2019-02-25T04:20:51.003Z,-0.20
2019-02-25T04:23:20.291Z,-0.20
2019-02-25T04:25:49.591Z,-0.30
2019-02-25T04:28:18.870Z,-0.30
2019-02-25T04:30:48.145Z,-0.30
2019-02-25T04:33:17.422Z,-0.30
2019-02-25T04:35:46.708Z,-0.40
2019-02-25T04:38:15.991Z,-0.40
2019-02-25T04:40:45.281Z,-0.40
2019-02-25T04:43:14.572Z,-0.50
2019-02-25T04:45:43.859Z,-0.50
2019-02-25T04:48:13.148Z,-0.50
2019-02-25T04:50:42.432Z,-0.50
2019-02-25T04:53:11.722Z,-0.60
2019-02-25T04:55:41.004Z,-0.60
2019-02-25T04:58:10.515Z,-0.70
2019-02-25T05:00:39.790Z,-0.70
2019-02-25T05:03:09.084Z,-0.80
2019-02-25T05:05:38.592Z,-0.80
2019-02-25T05:08:07.876Z,-0.80
2019-02-25T05:10:37.400Z,-0.80
2019-02-25T05:13:07.953Z,-0.80
2019-02-25T05:15:37.655Z,-0.80
2019-02-25T05:18:06.938Z,-0.70
2019-02-25T05:20:37.291Z,-0.70
2019-02-25T05:23:06.573Z,-0.60
2019-02-25T05:25:35.854Z,-0.50
2019-02-25T05:28:05.140Z,-0.50
2019-02-25T05:30:34.420Z,-0.50
2019-02-25T05:33:03.696Z,-0.50
2019-02-25T05:35:32.979Z,-0.50
2019-02-25T05:38:02.274Z,-0.50
2019-02-25T05:40:31.540Z,-0.50
2019-02-25T05:43:00.850Z,-0.50
2019-02-25T05:45:30.095Z,-0.40
2019-02-25T05:47:59.377Z,-0.40
2019-02-25T05:50:28.657Z,-0.30
2019-02-25T05:52:57.939Z,-0.20
2019-02-25T05:55:27.448Z,-0.20
2019-02-25T05:57:56.739Z,-0.20
2019-02-25T06:00:27.656Z,-0.20
2019-02-25T06:02:56.956Z,-0.20
2019-02-25T06:05:26.461Z,-0.10
2019-02-25T06:07:55.964Z,-0.30
2019-02-25T06:10:25.269Z,-0.40
2019-02-25T06:12:54.545Z,-0.50
2019-02-25T06:15:23.830Z,-0.50
2019-02-25T06:17:53.109Z,-0.60
2019-02-25T06:20:22.656Z,-0.60
2019-02-25T06:22:52.172Z,-0.70
2019-02-25T06:25:21.460Z,-0.80
2019-02-25T06:27:50.768Z,-0.80
2019-02-25T06:30:23.617Z,-0.90
2019-02-25T06:32:52.901Z,-1.00
2019-02-25T06:35:22.216Z,-1.00
2019-02-25T06:37:51.518Z,-1.00
2019-02-25T06:40:21.249Z,-1.00
2019-02-25T06:42:50.526Z,-1.00
2019-02-25T06:45:34.985Z,-0.90
2019-02-25T06:48:04.275Z,-0.80
2019-02-25T06:50:33.571Z,-0.70
2019-02-25T06:53:03.096Z,-0.60
2019-02-25T06:55:34.304Z,-0.40
2019-02-25T06:58:16.971Z,-0.30
2019-02-25T07:00:46.271Z,0.00
2019-02-25T07:03:15.536Z,0.30
2019-02-25T07:05:52.535Z,0.70
2019-02-25T07:08:35.285Z,1.20
2019-02-25T07:11:21.089Z,1.80
2019-02-25T07:13:54.925Z,2.30
2019-02-25T07:16:25.848Z,2.80
2019-02-25T07:19:00.754Z,3.40
2019-02-25T07:21:31.673Z,3.70
2019-02-25T07:24:02.606Z,4.30
2019-02-25T07:26:49.784Z,4.90
2019-02-25T07:29:20.701Z,5.20
2019-02-25T07:31:55.239Z,6.30
2019-02-25T07:34:42.396Z,7.50
2019-02-25T07:37:16.572Z,7.80
2019-02-25T07:39:52.749Z,7.30
2019-02-25T07:42:26.436Z,7.20
2019-02-25T07:45:03.268Z,8.20
2019-02-25T07:47:40.003Z,9.80
2019-02-25T07:50:14.208Z,10.40
2019-02-25T07:52:45.131Z,11.20
2019-02-25T07:55:22.057Z,11.60
2019-02-25T07:58:00.388Z,12.30
2019-02-25T08:00:31.342Z,13.10
2019-02-25T08:03:11.248Z,12.70
2019-02-25T08:05:47.889Z,11.40
2019-02-25T08:08:27.573Z,10.20
2019-02-25T08:11:02.852Z,10.50
2019-02-25T08:13:33.779Z,10.50
2019-02-25T08:16:21.132Z,11.20
2019-02-25T08:18:52.049Z,13.00
2019-02-25T08:21:22.967Z,15.90
2019-02-25T08:24:02.877Z,16.50
2019-02-25T08:26:39.772Z,18.00
2019-02-25T08:29:10.701Z,18.60
2019-02-25T08:31:58.063Z,18.70
2019-02-25T08:34:46.383Z,18.20
2019-02-25T08:37:26.411Z,19.30
2019-02-25T08:40:24.313Z,20.20
2019-02-25T08:42:54.147Z,20.50
2019-02-25T08:45:25.251Z,20.30
2019-02-25T08:47:59.087Z,20.80
2019-02-25T08:50:28.371Z,20.90
2019-02-25T08:52:57.668Z,21.30
2019-02-25T08:55:26.953Z,21.20
2019-02-25T08:57:56.232Z,21.90
2019-02-25T09:00:25.508Z,21.00
2019-02-25T09:02:55.912Z,21.40
2019-02-25T09:05:25.189Z,21.40
2019-02-25T09:07:54.736Z,22.10
2019-02-25T09:10:24.022Z,20.90
2019-02-25T09:12:53.307Z,21.10
2019-02-25T09:15:23.796Z,21.40
2019-02-25T09:17:52.001Z,22.70
2019-02-25T09:20:21.280Z,21.80
2019-02-25T09:22:50.559Z,20.40
2019-02-25T09:25:19.840Z,20.90
2019-02-25T09:27:49.132Z,20.90
2019-02-25T09:30:19.590Z,20.50
2019-02-25T09:32:49.125Z,21.20
2019-02-25T09:35:18.396Z,20.50
2019-02-25T09:37:47.760Z,19.50
2019-02-25T09:40:18.184Z,19.60
2019-02-25T09:42:47.551Z,19.70
2019-02-25T09:45:17.672Z,21.20
2019-02-25T09:47:46.956Z,22.60
2019-02-25T09:50:21.157Z,23.70
2019-02-25T09:52:50.434Z,23.30
2019-02-25T09:55:19.716Z,23.70
2019-02-25T09:57:49.083Z,24.30
2019-02-25T10:00:24.440Z,24.10
2019-02-25T10:02:53.953Z,21.90
2019-02-25T10:05:23.240Z,22.90
2019-02-25T10:07:52.532Z,23.70
2019-02-25T10:10:21.804Z,25.80
2019-02-25T10:12:51.160Z,24.90
2019-02-25T10:15:23.092Z,23.80
2019-02-25T10:17:52.600Z,24.70
2019-02-25T10:20:21.867Z,23.10
2019-02-25T10:22:51.160Z,23.10
2019-02-25T10:25:20.432Z,24.50
2019-02-25T10:27:49.896Z,27.00
2019-02-25T10:30:20.311Z,27.70
2019-02-25T10:32:49.663Z,25.50
2019-02-25T10:35:24.901Z,25.20
2019-02-25T10:37:55.244Z,25.20
2019-02-25T10:40:27.422Z,25.50
2019-02-25T10:42:55.800Z,26.50
2019-02-25T10:45:25.319Z,25.30
2019-02-25T10:47:58.449Z,25.50
2019-02-25T10:50:25.585Z,26.20
2019-02-25T10:53:03.275Z,24.30
2019-02-25T10:55:34.840Z,25.10
2019-02-25T10:58:05.593Z,26.80
2019-02-25T11:00:39.569Z,26.40
2019-02-25T11:03:10.713Z,25.60
2019-02-25T11:05:40.440Z,27.00
2019-02-25T11:08:12.106Z,24.10
2019-02-25T11:10:44.535Z,24.50
2019-02-25T11:13:15.081Z,25.40
2019-02-25T11:15:46.156Z,24.10
2019-02-25T11:18:17.435Z,25.70
2019-02-25T11:20:46.555Z,25.30
2019-02-25T11:23:17.590Z,24.40
2019-02-25T11:25:46.827Z,25.00
2019-02-25T11:28:25.405Z,24.80
2019-02-25T11:30:49.810Z,25.00
2019-02-25T11:33:19.376Z,24.60
2019-02-25T11:35:48.666Z,25.20
2019-02-25T11:38:18.016Z,23.90
2019-02-25T11:40:47.311Z,24.40
2019-02-25T11:43:18.632Z,23.80
2019-02-25T11:45:47.700Z,23.90
2019-02-25T11:48:17.055Z,24.70
2019-02-25T11:50:46.334Z,23.40
2019-02-25T11:53:15.648Z,23.40
2019-02-25T11:55:44.920Z,22.50
2019-02-25T11:58:14.196Z,23.20
2019-02-25T12:00:43.479Z,21.80
2019-02-25T12:03:12.771Z,21.90
2019-02-25T12:05:42.288Z,21.90
2019-02-25T12:08:11.567Z,21.80
2019-02-25T12:10:40.852Z,20.80
2019-02-25T12:13:10.195Z,20.60
2019-02-25T12:15:39.496Z,21.60
2019-02-25T12:18:08.802Z,20.80
2019-02-25T12:20:38.063Z,20.90
2019-02-25T12:23:07.355Z,22.20
2019-02-25T12:25:36.860Z,23.50
2019-02-25T12:28:06.151Z,22.40
2019-02-25T12:30:35.593Z,23.40
2019-02-25T12:33:04.877Z,24.90
2019-02-25T12:35:34.147Z,24.40
2019-02-25T12:38:03.519Z,26.20
2019-02-25T12:40:32.788Z,27.60
2019-02-25T12:43:02.338Z,26.90
2019-02-25T12:45:31.887Z,26.90
2019-02-25T12:48:01.176Z,26.00
2019-02-25T12:50:30.447Z,27.30
2019-02-25T12:52:59.727Z,27.50
2019-02-25T12:55:29.005Z,28.70
2019-02-25T12:57:58.303Z,27.30
2019-02-25T13:00:27.597Z,26.50
2019-02-25T13:02:57.109Z,26.00
2019-02-25T13:05:26.563Z,24.90
2019-02-25T13:07:55.847Z,23.70
2019-02-25T13:10:25.135Z,22.60
2019-02-25T13:12:54.424Z,22.40
2019-02-25T13:15:24.809Z,21.50
2019-02-25T13:17:54.089Z,20.20
2019-02-25T13:20:23.367Z,20.70
2019-02-25T13:22:52.651Z,20.40
2019-02-25T13:25:32.701Z,20.70
2019-02-25T13:28:04.052Z,21.70
2019-02-25T13:30:32.944Z,21.30
2019-02-25T13:33:02.216Z,20.70
2019-02-25T13:35:31.773Z,21.50
2019-02-25T13:38:01.061Z,21.00
2019-02-25T13:40:30.420Z,20.40
2019-02-25T13:42:59.716Z,21.20
2019-02-25T13:45:29.081Z,21.30
2019-02-25T13:47:58.515Z,20.70
2019-02-25T13:50:28.763Z,20.80
2019-02-25T13:52:58.278Z,20.60
2019-02-25T13:55:27.625Z,20.20
2019-02-25T13:57:57.742Z,19.50
2019-02-25T14:00:28.307Z,19.70
2019-02-25T14:02:57.687Z,20.60
2019-02-25T14:05:27.037Z,20.20
2019-02-25T14:07:56.323Z,20.20
2019-02-25T14:10:25.600Z,20.20
2019-02-25T14:12:54.880Z,20.40
2019-02-25T14:15:24.917Z,20.60
2019-02-25T14:17:54.266Z,20.40
2019-02-25T14:20:25.777Z,19.80
2019-02-25T14:23:07.383Z,19.40
2019-02-25T14:25:38.422Z,18.80
2019-02-25T14:28:08.393Z,18.60
2019-02-25T14:30:38.333Z,17.90
2019-02-25T14:33:14.825Z,17.60
2019-02-25T14:35:44.362Z,17.40
2019-02-25T14:38:17.372Z,17.00
2019-02-25T14:40:46.643Z,16.80
2019-02-25T14:43:17.674Z,16.90
2019-02-25T14:45:51.786Z,16.50
2019-02-25T14:48:21.067Z,16.40
2019-02-25T15:01:05.240Z,16.00
2019-02-25T15:03:34.813Z,15.80
2019-02-25T15:06:04.306Z,15.70
2019-02-25T15:08:33.796Z,15.50
2019-02-25T15:11:04.920Z,15.40
2019-02-25T15:13:36.672Z,15.30
2019-02-25T15:16:14.937Z,15.20
2019-02-25T15:18:44.488Z,15.10
2019-02-25T15:21:15.920Z,14.90
2019-02-25T15:23:45.492Z,14.80
2019-02-25T15:26:17.388Z,14.70
2019-02-25T15:28:47.499Z,14.60
2019-02-25T15:31:17.264Z,14.60
2019-02-25T15:33:46.747Z,14.50
2019-02-25T15:36:17.878Z,14.50
2019-02-25T15:38:47.338Z,14.50
2019-02-25T15:41:17.009Z,14.40
2019-02-25T15:43:46.479Z,14.30
2019-02-25T15:46:24.181Z,14.10
2019-02-25T15:48:54.205Z,14.10
2019-02-25T15:51:25.070Z,14.00
2019-02-25T15:53:55.721Z,13.90
2019-02-25T15:56:25.619Z,13.90
2019-02-25T15:58:55.375Z,13.80
2019-02-25T16:01:24.820Z,13.80
2019-02-25T16:03:56.492Z,13.90
2019-02-25T16:06:28.816Z,13.90
2019-02-25T16:08:58.297Z,13.90
2019-02-25T16:11:27.255Z,13.90
2019-02-25T16:13:57.918Z,13.80
2019-02-25T16:16:28.609Z,13.80
2019-02-25T16:18:59.083Z,13.70
2019-02-25T16:21:28.772Z,13.60
2019-02-25T16:23:59.709Z,13.40
2019-02-25T16:26:31.713Z,13.40
2019-02-25T16:29:05.927Z,13.30
2019-02-25T16:31:35.877Z,13.20
2019-02-25T16:34:05.407Z,13.20
2019-02-25T16:36:35.004Z,13.00
2019-02-25T16:39:07.245Z,12.90
2019-02-25T16:41:39.279Z,12.80
2019-02-25T16:44:09.182Z,12.70
2019-02-25T16:46:41.143Z,12.40
2019-02-25T16:49:09.996Z,12.30
2019-02-25T16:51:40.277Z,12.20
2019-02-25T16:54:11.628Z,12.10
2019-02-25T16:56:40.633Z,12.00
2019-02-25T16:59:11.814Z,11.90
2019-02-25T17:01:41.951Z,11.80
2019-02-25T17:04:12.199Z,11.80
2019-02-25T17:06:42.412Z,11.60
2019-02-25T17:09:18.147Z,11.40
2019-02-25T17:11:47.468Z,11.20
2019-02-25T17:14:19.164Z,11.20
2019-02-25T17:16:49.040Z,11.20
2019-02-25T17:19:21.797Z,11.10
2019-02-25T17:21:49.857Z,11.00
2019-02-25T17:24:21.264Z,10.80
2019-02-25T17:26:50.129Z,10.80
2019-02-25T17:29:19.496Z,10.70
2019-02-25T17:31:48.777Z,10.70
2019-02-25T17:34:19.226Z,10.70
2019-02-25T17:36:50.099Z,10.70
2019-02-25T17:39:20.023Z,10.60
2019-02-25T17:41:49.309Z,10.50
2019-02-25T17:44:20.556Z,10.50
2019-02-25T17:46:49.578Z,10.50
2019-02-25T17:49:19.254Z,10.50
2019-02-25T17:51:51.123Z,10.40
2019-02-25T17:54:21.535Z,10.30
2019-02-25T17:56:51.872Z,10.20
2019-02-25T17:59:22.969Z,10.10
2019-02-25T18:01:52.440Z,10.00
2019-02-25T18:04:24.402Z,10.00
2019-02-25T18:06:54.003Z,9.90
2019-02-25T18:09:24.844Z,9.90
2019-02-25T18:11:54.356Z,9.80
2019-02-25T18:14:23.937Z,9.70
2019-02-25T18:16:53.221Z,9.50
2019-02-25T18:19:24.833Z,9.40
2019-02-25T18:21:53.856Z,9.40
2019-02-25T18:24:26.776Z,9.30
2019-02-25T18:26:54.175Z,9.20
2019-02-25T18:29:24.794Z,9.00
2019-02-25T18:31:55.044Z,8.90
2019-02-25T18:34:24.391Z,8.70
2019-02-25T18:36:55.347Z,8.60
2019-02-25T18:39:27.481Z,8.40
2019-02-25T18:41:57.287Z,8.30
2019-02-25T18:44:26.911Z,8.10
2019-02-25T18:46:56.252Z,8.00
2019-02-25T18:49:26.625Z,7.90
2019-02-25T18:51:56.643Z,7.80
2019-02-25T18:54:28.004Z,7.60
2019-02-25T18:56:59.005Z,7.60
2019-02-25T18:59:28.953Z,7.60
2019-02-25T19:01:58.224Z,7.60
2019-02-25T19:04:27.565Z,7.50
2019-02-25T19:06:56.947Z,7.40
2019-02-25T19:09:27.658Z,7.20
2019-02-25T19:11:57.911Z,7.10
2019-02-25T19:14:28.841Z,7.00
2019-02-25T19:16:59.780Z,6.90
2019-02-25T19:19:31.362Z,6.90
2019-02-25T19:22:01.236Z,6.90
2019-02-25T19:24:33.449Z,6.90
2019-02-25T19:27:02.624Z,7.00
2019-02-25T19:29:32.993Z,6.90
2019-02-25T19:32:02.277Z,6.90
2019-02-25T19:34:31.880Z,6.80
2019-02-25T19:37:02.861Z,6.80
2019-02-25T19:39:33.609Z,6.60
2019-02-25T19:42:04.508Z,6.60
2019-02-25T19:44:34.806Z,6.40
2019-02-25T19:47:07.335Z,6.40
2019-02-25T19:49:36.704Z,6.30
2019-02-25T19:52:07.210Z,6.20
2019-02-25T19:54:38.501Z,6.10
2019-02-25T19:57:08.306Z,6.00
2019-02-25T19:59:37.583Z,5.90
2019-02-25T20:02:06.871Z,5.80
2019-02-25T20:04:37.723Z,5.90
2019-02-25T20:07:07.436Z,5.80
2019-02-25T20:09:40.318Z,5.80
2019-02-25T20:12:08.876Z,5.80
2019-02-25T20:14:38.184Z,5.70
2019-02-25T20:17:07.692Z,5.70
2019-02-25T20:19:38.730Z,5.70
2019-02-25T20:22:09.888Z,5.60
2019-02-25T20:24:42.359Z,5.70
2019-02-25T20:27:10.003Z,5.70
2019-02-25T20:29:40.006Z,5.70
2019-02-25T20:32:12.144Z,5.60
2019-02-25T20:34:41.380Z,5.60
2019-02-25T20:37:10.675Z,5.40
2019-02-25T20:39:41.119Z,5.40
2019-02-25T20:42:10.935Z,5.20
2019-02-25T20:44:40.212Z,5.20
2019-02-25T20:47:09.519Z,5.20
2019-02-25T20:49:39.029Z,5.10
2019-02-25T20:52:08.307Z,5.00
2019-02-25T20:54:40.901Z,5.00
2019-02-25T20:57:10.158Z,4.90
2019-02-25T20:59:40.645Z,4.90
2019-02-25T21:02:14.450Z,4.80
2019-02-25T21:04:43.374Z,4.80
2019-02-25T21:07:13.265Z,4.70
2019-02-25T21:09:43.668Z,4.60
2019-02-25T21:12:15.148Z,4.60
2019-02-25T21:14:44.974Z,4.60
2019-02-25T21:17:14.467Z,4.60
2019-02-25T21:19:44.824Z,4.60
2019-02-25T21:22:14.115Z,4.60
2019-02-25T21:24:44.722Z,4.60
2019-02-25T21:27:13.998Z,4.60
2019-02-25T21:29:43.292Z,4.50
2019-02-25T21:32:15.094Z,4.50
2019-02-25T21:34:50.095Z,4.40
2019-02-25T21:37:16.028Z,4.30
2019-02-25T21:39:45.306Z,4.30
2019-02-25T21:42:15.393Z,4.30
2019-02-25T21:44:48.632Z,4.30
2019-02-25T21:47:20.164Z,4.20
2019-02-25T21:49:48.692Z,4.10
2019-02-25T21:52:18.001Z,4.10
2019-02-25T21:54:47.295Z,4.00
2019-02-25T21:57:16.592Z,4.00
2019-02-25T21:59:45.906Z,3.90
2019-02-25T22:02:16.492Z,3.80
2019-02-25T22:04:48.126Z,3.80
2019-02-25T22:07:20.036Z,3.80
2019-02-25T22:09:47.830Z,3.70
2019-02-25T22:12:17.173Z,3.80
2019-02-25T22:14:47.762Z,4.00
2019-02-25T22:17:19.976Z,4.10
2019-02-25T22:19:50.227Z,4.30
2019-02-25T22:22:24.151Z,4.40
2019-02-25T22:24:50.723Z,4.40
2019-02-25T22:27:21.178Z,4.30
2019-02-25T22:29:51.025Z,4.10
2019-02-25T22:32:20.321Z,4.00
2019-02-25T22:34:49.603Z,3.90
2019-02-25T22:37:21.529Z,3.80
2019-02-25T22:39:50.909Z,3.70
2019-02-25T22:42:21.144Z,3.70
2019-02-25T22:44:51.794Z,3.60
2019-02-25T22:47:23.003Z,3.50
2019-02-25T22:49:52.424Z,3.50
2019-02-25T22:52:22.152Z,3.40
2019-02-25T22:54:52.757Z,3.40
2019-02-25T22:57:23.191Z,3.30
2019-02-25T22:59:53.064Z,3.30
2019-02-25T23:02:25.092Z,3.40
2019-02-25T23:04:54.165Z,3.60
2019-02-25T23:07:24.684Z,3.70
2019-02-25T23:09:54.435Z,4.00
2019-02-25T23:12:25.004Z,4.00
2019-02-25T23:14:56.135Z,3.90
2019-02-25T23:17:26.209Z,3.80
2019-02-25T23:19:58.049Z,3.60
2019-02-25T23:22:30.101Z,3.40
2019-02-25T23:24:59.492Z,3.30
2019-02-25T23:27:30.123Z,3.20
2019-02-25T23:29:59.852Z,3.10
2019-02-25T23:32:29.156Z,3.10
2019-02-25T23:34:58.517Z,3.10
2019-02-25T23:37:28.079Z,3.00
2019-02-25T23:40:00.043Z,3.00
2019-02-25T23:42:32.753Z,3.20
2019-02-25T23:44:59.865Z,3.30
2019-02-25T23:47:31.138Z,3.30
2019-02-25T23:50:01.183Z,3.30
2019-02-25T23:52:33.784Z,3.20
2019-02-25T23:55:02.359Z,3.10
2019-02-25T23:57:32.728Z,3.00
